sensor_id;sensor_type;location;lat;lon;timestamp;P1;durP1;ratioP1;P2;durP2;ratioP2
50249;SDS011;36133;42.522;27.456;2023-05-01T00:02:27;34.00;;;21.92;;
50249;SDS011;36133;42.522;27.456;2023-05-01T00:04:54;31.88;;;21.52;;
50249;SDS011;36133;42.522;27.456;2023-05-01T00:07:20;31.50;;;21.25;;
50249;SDS011;36133;42.522;27.456;2023-05-01T00:09:46;29.27;;;21.30;;
50249;SDS011;36133;42.522;27.456;2023-05-01T00:12:11;32.30;;;22.55;;
50249;SDS011;36133;42.522;27.456;2023-05-01T00:14:37;31.55;;;20.63;;
50249;SDS011;36133;42.522;27.456;2023-05-01T00:17:03;32.35;;;21.15;;
50249;SDS011;36133;42.522;27.456;2023-05-01T00:19:28;32.60;;;21.00;;
50249;SDS011;36133;42.522;27.456;2023-05-01T00:21:54;28.08;;;19.48;;
50249;SDS011;36133;42.522;27.456;2023-05-01T00:24:20;31.42;;;20.33;;
50249;SDS011;36133;42.522;27.456;2023-05-01T00:26:45;31.70;;;20.60;;
50249;SDS011;36133;42.522;27.456;2023-05-01T00:29:11;30.90;;;20.33;;
50249;SDS011;36133;42.522;27.456;2023-05-01T00:31:37;31.70;;;21.77;;
50249;SDS011;36133;42.522;27.456;2023-05-01T00:34:02;33.08;;;21.67;;
50249;SDS011;36133;42.522;27.456;2023-05-01T00:36:29;29.13;;;19.63;;
50249;SDS011;36133;42.522;27.456;2023-05-01T00:38:55;27.27;;;19.42;;
50249;SDS011;36133;42.522;27.456;2023-05-01T00:41:21;32.15;;;19.77;;
50249;SDS011;36133;42.522;27.456;2023-05-01T00:43:46;32.00;;;21.15;;
50249;SDS011;36133;42.522;27.456;2023-05-01T00:46:12;41.97;;;24.77;;
50249;SDS011;36133;42.522;27.456;2023-05-01T00:48:38;39.67;;;26.35;;
50249;SDS011;36133;42.522;27.456;2023-05-01T00:51:04;44.47;;;26.45;;
50249;SDS011;36133;42.522;27.456;2023-05-01T00:53:34;40.17;;;24.27;;
50249;SDS011;36133;42.522;27.456;2023-05-01T00:56:00;37.92;;;25.60;;
50249;SDS011;36133;42.522;27.456;2023-05-01T00:58:26;36.00;;;24.35;;
50249;SDS011;36133;42.522;27.456;2023-05-01T01:00:53;37.65;;;23.90;;
50249;SDS011;36133;42.522;27.456;2023-05-01T01:03:19;38.95;;;23.73;;
50249;SDS011;36133;42.522;27.456;2023-05-01T01:05:45;35.75;;;24.80;;
50249;SDS011;36133;42.522;27.456;2023-05-01T01:11:13;38.05;;;27.02;;
50249;SDS011;36133;42.522;27.456;2023-05-01T01:16:40;43.97;;;29.45;;
50249;SDS011;36133;42.522;27.456;2023-05-01T01:22:14;44.08;;;29.38;;
50249;SDS011;36133;42.522;27.456;2023-05-01T01:35:19;49.17;;;31.42;;
50249;SDS011;36133;42.522;27.456;2023-05-01T01:40:23;57.92;;;33.80;;
50249;SDS011;36133;42.522;27.456;2023-05-01T01:43:11;65.22;;;37.67;;
50249;SDS011;36133;42.522;27.456;2023-05-01T01:45:42;65.25;;;37.67;;
50249;SDS011;36133;42.522;27.456;2023-05-01T01:48:12;61.63;;;37.65;;
50249;SDS011;36133;42.522;27.456;2023-05-01T01:50:41;56.63;;;38.17;;
50249;SDS011;36133;42.522;27.456;2023-05-01T01:53:10;58.50;;;36.47;;
50249;SDS011;36133;42.522;27.456;2023-05-01T01:55:39;49.00;;;33.45;;
50249;SDS011;36133;42.522;27.456;2023-05-01T01:58:07;49.78;;;34.38;;
50249;SDS011;36133;42.522;27.456;2023-05-01T02:00:34;57.33;;;35.95;;
50249;SDS011;36133;42.522;27.456;2023-05-01T02:03:01;64.95;;;39.13;;
50249;SDS011;36133;42.522;27.456;2023-05-01T02:05:27;53.53;;;36.30;;
50249;SDS011;36133;42.522;27.456;2023-05-01T02:07:55;53.08;;;35.45;;
50249;SDS011;36133;42.522;27.456;2023-05-01T02:10:23;49.20;;;34.45;;
50249;SDS011;36133;42.522;27.456;2023-05-01T02:12:50;47.80;;;32.60;;
50249;SDS011;36133;42.522;27.456;2023-05-01T02:15:17;47.92;;;32.50;;
50249;SDS011;36133;42.522;27.456;2023-05-01T02:17:44;46.22;;;31.08;;
50249;SDS011;36133;42.522;27.456;2023-05-01T02:20:10;49.70;;;31.65;;
50249;SDS011;36133;42.522;27.456;2023-05-01T02:22:41;51.03;;;30.55;;
50249;SDS011;36133;42.522;27.456;2023-05-01T02:25:10;45.35;;;30.92;;
50249;SDS011;36133;42.522;27.456;2023-05-01T02:27:37;48.33;;;32.65;;
50249;SDS011;36133;42.522;27.456;2023-05-01T02:30:07;46.22;;;31.67;;
50249;SDS011;36133;42.522;27.456;2023-05-01T02:32:34;50.35;;;32.67;;
50249;SDS011;36133;42.522;27.456;2023-05-01T02:34:59;44.83;;;31.95;;
50249;SDS011;36133;42.522;27.456;2023-05-01T02:37:25;46.97;;;31.40;;
50249;SDS011;36133;42.522;27.456;2023-05-01T02:39:52;49.85;;;32.05;;
50249;SDS011;36133;42.522;27.456;2023-05-01T02:42:18;45.97;;;32.78;;
50249;SDS011;36133;42.522;27.456;2023-05-01T02:44:50;43.10;;;31.23;;
50249;SDS011;36133;42.522;27.456;2023-05-01T02:47:21;39.10;;;29.20;;
50249;SDS011;36133;42.522;27.456;2023-05-01T02:49:50;40.92;;;28.77;;
50249;SDS011;36133;42.522;27.456;2023-05-01T02:52:18;40.05;;;28.63;;
50249;SDS011;36133;42.522;27.456;2023-05-01T02:54:44;37.80;;;27.02;;
50249;SDS011;36133;42.522;27.456;2023-05-01T02:57:11;41.15;;;28.17;;
50249;SDS011;36133;42.522;27.456;2023-05-01T02:59:37;39.50;;;26.77;;
50249;SDS011;36133;42.522;27.456;2023-05-01T03:02:02;37.42;;;25.88;;
50249;SDS011;36133;42.522;27.456;2023-05-01T03:04:28;39.35;;;27.33;;
50249;SDS011;36133;42.522;27.456;2023-05-01T03:06:54;42.40;;;28.02;;
50249;SDS011;36133;42.522;27.456;2023-05-01T03:09:21;37.20;;;26.73;;
50249;SDS011;36133;42.522;27.456;2023-05-01T03:11:46;39.70;;;27.67;;
50249;SDS011;36133;42.522;27.456;2023-05-01T03:14:12;40.95;;;28.75;;
50249;SDS011;36133;42.522;27.456;2023-05-01T03:16:38;44.70;;;30.27;;
50249;SDS011;36133;42.522;27.456;2023-05-01T03:19:04;41.67;;;27.70;;
50249;SDS011;36133;42.522;27.456;2023-05-01T03:21:30;41.33;;;27.58;;
50249;SDS011;36133;42.522;27.456;2023-05-01T03:23:56;40.78;;;28.50;;
50249;SDS011;36133;42.522;27.456;2023-05-01T03:26:22;45.53;;;30.25;;
50249;SDS011;36133;42.522;27.456;2023-05-01T03:28:48;51.92;;;29.67;;
50249;SDS011;36133;42.522;27.456;2023-05-01T03:31:13;34.50;;;25.77;;
50249;SDS011;36133;42.522;27.456;2023-05-01T03:33:39;37.17;;;25.30;;
50249;SDS011;36133;42.522;27.456;2023-05-01T03:36:05;35.55;;;25.05;;
50249;SDS011;36133;42.522;27.456;2023-05-01T03:38:31;30.98;;;23.33;;
50249;SDS011;36133;42.522;27.456;2023-05-01T03:40:57;32.72;;;23.33;;
50249;SDS011;36133;42.522;27.456;2023-05-01T03:43:24;34.95;;;23.45;;
50249;SDS011;36133;42.522;27.456;2023-05-01T03:45:50;30.98;;;22.27;;
50249;SDS011;36133;42.522;27.456;2023-05-01T03:48:19;31.10;;;22.50;;
50249;SDS011;36133;42.522;27.456;2023-05-01T03:50:46;34.20;;;21.27;;
50249;SDS011;36133;42.522;27.456;2023-05-01T03:53:11;30.02;;;21.55;;
50249;SDS011;36133;42.522;27.456;2023-05-01T03:55:37;33.92;;;22.02;;
50249;SDS011;36133;42.522;27.456;2023-05-01T03:58:04;32.65;;;22.70;;
50249;SDS011;36133;42.522;27.456;2023-05-01T04:00:31;29.80;;;20.92;;
50249;SDS011;36133;42.522;27.456;2023-05-01T04:02:56;33.50;;;21.50;;
50249;SDS011;36133;42.522;27.456;2023-05-01T04:05:22;31.33;;;22.60;;
50249;SDS011;36133;42.522;27.456;2023-05-01T04:07:48;36.03;;;20.48;;
50249;SDS011;36133;42.522;27.456;2023-05-01T04:10:13;31.88;;;22.38;;
50249;SDS011;36133;42.522;27.456;2023-05-01T04:12:39;31.30;;;21.30;;
50249;SDS011;36133;42.522;27.456;2023-05-01T04:15:05;27.42;;;19.23;;
50249;SDS011;36133;42.522;27.456;2023-05-01T04:17:31;26.25;;;18.85;;
50249;SDS011;36133;42.522;27.456;2023-05-01T04:19:57;27.45;;;18.95;;
50249;SDS011;36133;42.522;27.456;2023-05-01T04:22:22;25.38;;;18.90;;
50249;SDS011;36133;42.522;27.456;2023-05-01T04:24:48;40.65;;;28.90;;
50249;SDS011;36133;42.522;27.456;2023-05-01T04:27:14;43.92;;;30.42;;
50249;SDS011;36133;42.522;27.456;2023-05-01T04:29:39;46.92;;;33.88;;
50249;SDS011;36133;42.522;27.456;2023-05-01T04:32:06;39.78;;;29.42;;
50249;SDS011;36133;42.522;27.456;2023-05-01T04:34:32;30.75;;;22.70;;
50249;SDS011;36133;42.522;27.456;2023-05-01T04:36:57;24.58;;;17.10;;
50249;SDS011;36133;42.522;27.456;2023-05-01T04:39:23;26.20;;;19.60;;
50249;SDS011;36133;42.522;27.456;2023-05-01T04:41:48;24.85;;;18.60;;
50249;SDS011;36133;42.522;27.456;2023-05-01T04:44:14;24.52;;;18.38;;
50249;SDS011;36133;42.522;27.456;2023-05-01T04:46:40;24.77;;;19.15;;
50249;SDS011;36133;42.522;27.456;2023-05-01T04:49:06;23.83;;;18.08;;
50249;SDS011;36133;42.522;27.456;2023-05-01T04:51:32;29.60;;;19.10;;
50249;SDS011;36133;42.522;27.456;2023-05-01T04:53:57;27.15;;;19.95;;
50249;SDS011;36133;42.522;27.456;2023-05-01T04:56:23;26.58;;;20.58;;
50249;SDS011;36133;42.522;27.456;2023-05-01T04:58:49;43.03;;;27.90;;
50249;SDS011;36133;42.522;27.456;2023-05-01T05:01:15;43.40;;;29.00;;
50249;SDS011;36133;42.522;27.456;2023-05-01T05:03:41;29.75;;;20.90;;
50249;SDS011;36133;42.522;27.456;2023-05-01T05:06:06;24.38;;;16.55;;
50249;SDS011;36133;42.522;27.456;2023-05-01T05:08:32;27.25;;;20.40;;
50249;SDS011;36133;42.522;27.456;2023-05-01T05:10:58;26.88;;;18.30;;
50249;SDS011;36133;42.522;27.456;2023-05-01T05:13:26;29.95;;;17.67;;
50249;SDS011;36133;42.522;27.456;2023-05-01T05:15:52;29.80;;;19.75;;
50249;SDS011;36133;42.522;27.456;2023-05-01T05:18:18;32.38;;;20.83;;
50249;SDS011;36133;42.522;27.456;2023-05-01T05:20:43;30.30;;;19.83;;
50249;SDS011;36133;42.522;27.456;2023-05-01T05:23:09;30.13;;;21.25;;
50249;SDS011;36133;42.522;27.456;2023-05-01T05:25:34;28.67;;;20.40;;
50249;SDS011;36133;42.522;27.456;2023-05-01T05:28:00;31.00;;;19.73;;
50249;SDS011;36133;42.522;27.456;2023-05-01T05:30:26;24.40;;;18.85;;
50249;SDS011;36133;42.522;27.456;2023-05-01T05:32:51;31.00;;;20.77;;
50249;SDS011;36133;42.522;27.456;2023-05-01T05:35:17;36.45;;;23.08;;
50249;SDS011;36133;42.522;27.456;2023-05-01T05:37:43;46.78;;;27.20;;
50249;SDS011;36133;42.522;27.456;2023-05-01T05:40:09;37.13;;;27.50;;
50249;SDS011;36133;42.522;27.456;2023-05-01T05:42:34;29.73;;;20.52;;
50249;SDS011;36133;42.522;27.456;2023-05-01T05:45:00;35.88;;;24.75;;
50249;SDS011;36133;42.522;27.456;2023-05-01T05:47:26;31.48;;;22.38;;
50249;SDS011;36133;42.522;27.456;2023-05-01T05:49:51;33.42;;;23.08;;
50249;SDS011;36133;42.522;27.456;2023-05-01T05:52:19;28.33;;;19.63;;
50249;SDS011;36133;42.522;27.456;2023-05-01T05:54:45;26.63;;;19.60;;
50249;SDS011;36133;42.522;27.456;2023-05-01T05:57:10;24.13;;;15.95;;
50249;SDS011;36133;42.522;27.456;2023-05-01T05:59:36;28.35;;;17.17;;
50249;SDS011;36133;42.522;27.456;2023-05-01T06:02:02;26.17;;;17.65;;
50249;SDS011;36133;42.522;27.456;2023-05-01T06:04:27;25.65;;;18.45;;
50249;SDS011;36133;42.522;27.456;2023-05-01T06:06:53;24.38;;;17.40;;
50249;SDS011;36133;42.522;27.456;2023-05-01T06:09:19;26.88;;;19.05;;
50249;SDS011;36133;42.522;27.456;2023-05-01T06:11:44;28.45;;;19.15;;
50249;SDS011;36133;42.522;27.456;2023-05-01T06:14:10;26.60;;;20.52;;
50249;SDS011;36133;42.522;27.456;2023-05-01T06:16:36;27.85;;;19.67;;
50249;SDS011;36133;42.522;27.456;2023-05-01T06:19:02;35.15;;;21.67;;
50249;SDS011;36133;42.522;27.456;2023-05-01T06:21:27;34.03;;;21.20;;
50249;SDS011;36133;42.522;27.456;2023-05-01T06:23:53;32.10;;;21.88;;
50249;SDS011;36133;42.522;27.456;2023-05-01T06:26:19;34.17;;;21.02;;
50249;SDS011;36133;42.522;27.456;2023-05-01T06:28:48;31.80;;;19.33;;
50249;SDS011;36133;42.522;27.456;2023-05-01T06:31:14;27.48;;;18.55;;
50249;SDS011;36133;42.522;27.456;2023-05-01T06:33:40;48.83;;;36.63;;
50249;SDS011;36133;42.522;27.456;2023-05-01T06:36:06;30.90;;;24.30;;
50249;SDS011;36133;42.522;27.456;2023-05-01T06:38:35;38.50;;;27.98;;
50249;SDS011;36133;42.522;27.456;2023-05-01T06:41:16;33.83;;;25.63;;
50249;SDS011;36133;42.522;27.456;2023-05-01T06:43:42;36.67;;;23.73;;
50249;SDS011;36133;42.522;27.456;2023-05-01T06:46:07;29.90;;;20.17;;
50249;SDS011;36133;42.522;27.456;2023-05-01T06:48:33;30.98;;;21.02;;
50249;SDS011;36133;42.522;27.456;2023-05-01T06:50:58;38.85;;;24.58;;
50249;SDS011;36133;42.522;27.456;2023-05-01T06:53:24;34.65;;;23.75;;
50249;SDS011;36133;42.522;27.456;2023-05-01T06:55:51;41.20;;;25.48;;
50249;SDS011;36133;42.522;27.456;2023-05-01T06:58:24;30.00;;;21.25;;
50249;SDS011;36133;42.522;27.456;2023-05-01T07:00:50;29.95;;;19.77;;
50249;SDS011;36133;42.522;27.456;2023-05-01T07:03:17;26.63;;;17.58;;
50249;SDS011;36133;42.522;27.456;2023-05-01T07:05:43;25.83;;;18.45;;
50249;SDS011;36133;42.522;27.456;2023-05-01T07:08:12;23.45;;;17.38;;
50249;SDS011;36133;42.522;27.456;2023-05-01T07:10:38;21.10;;;14.90;;
50249;SDS011;36133;42.522;27.456;2023-05-01T07:13:06;22.88;;;15.13;;
50249;SDS011;36133;42.522;27.456;2023-05-01T07:15:32;21.92;;;14.63;;
50249;SDS011;36133;42.522;27.456;2023-05-01T07:17:58;30.00;;;13.45;;
50249;SDS011;36133;42.522;27.456;2023-05-01T07:20:25;26.10;;;15.38;;
50249;SDS011;36133;42.522;27.456;2023-05-01T07:22:50;17.67;;;14.77;;
50249;SDS011;36133;42.522;27.456;2023-05-01T07:25:16;39.22;;;27.05;;
50249;SDS011;36133;42.522;27.456;2023-05-01T07:27:42;36.70;;;21.85;;
50249;SDS011;36133;42.522;27.456;2023-05-01T07:30:07;26.67;;;19.88;;
50249;SDS011;36133;42.522;27.456;2023-05-01T07:32:34;22.20;;;16.55;;
50249;SDS011;36133;42.522;27.456;2023-05-01T07:34:59;19.20;;;14.00;;
50249;SDS011;36133;42.522;27.456;2023-05-01T07:37:26;20.02;;;13.45;;
50249;SDS011;36133;42.522;27.456;2023-05-01T07:39:57;18.42;;;12.38;;
50249;SDS011;36133;42.522;27.456;2023-05-01T07:42:22;16.75;;;12.93;;
50249;SDS011;36133;42.522;27.456;2023-05-01T07:44:54;17.45;;;11.55;;
50249;SDS011;36133;42.522;27.456;2023-05-01T07:47:19;12.95;;;9.90;;
50249;SDS011;36133;42.522;27.456;2023-05-01T07:49:45;13.02;;;9.85;;
50249;SDS011;36133;42.522;27.456;2023-05-01T07:52:11;19.40;;;10.10;;
50249;SDS011;36133;42.522;27.456;2023-05-01T07:54:36;14.90;;;9.18;;
50249;SDS011;36133;42.522;27.456;2023-05-01T07:57:04;16.13;;;9.60;;
50249;SDS011;36133;42.522;27.456;2023-05-01T07:59:30;13.18;;;7.60;;
50249;SDS011;36133;42.522;27.456;2023-05-01T08:01:56;12.27;;;7.70;;
50249;SDS011;36133;42.522;27.456;2023-05-01T08:04:22;12.10;;;6.65;;
50249;SDS011;36133;42.522;27.456;2023-05-01T08:06:48;10.48;;;4.30;;
50249;SDS011;36133;42.522;27.456;2023-05-01T08:09:15;9.38;;;3.72;;
50249;SDS011;36133;42.522;27.456;2023-05-01T08:11:41;5.10;;;3.55;;
50249;SDS011;36133;42.522;27.456;2023-05-01T08:14:06;9.25;;;4.25;;
50249;SDS011;36133;42.522;27.456;2023-05-01T08:16:35;11.32;;;4.38;;
50249;SDS011;36133;42.522;27.456;2023-05-01T08:19:01;7.70;;;4.07;;
50249;SDS011;36133;42.522;27.456;2023-05-01T08:21:28;8.30;;;4.05;;
50249;SDS011;36133;42.522;27.456;2023-05-01T08:23:53;9.80;;;3.88;;
50249;SDS011;36133;42.522;27.456;2023-05-01T08:26:20;6.05;;;3.75;;
50249;SDS011;36133;42.522;27.456;2023-05-01T08:28:46;12.88;;;3.95;;
50249;SDS011;36133;42.522;27.456;2023-05-01T08:31:12;14.80;;;4.15;;
50249;SDS011;36133;42.522;27.456;2023-05-01T08:33:38;6.68;;;3.60;;
50249;SDS011;36133;42.522;27.456;2023-05-01T08:36:09;4.85;;;3.35;;
50249;SDS011;36133;42.522;27.456;2023-05-01T08:38:38;6.00;;;3.30;;
50249;SDS011;36133;42.522;27.456;2023-05-01T08:41:03;6.13;;;3.30;;
50249;SDS011;36133;42.522;27.456;2023-05-01T08:43:31;6.90;;;3.55;;
50249;SDS011;36133;42.522;27.456;2023-05-01T08:45:58;4.32;;;2.53;;
50249;SDS011;36133;42.522;27.456;2023-05-01T08:48:31;7.13;;;3.20;;
50249;SDS011;36133;42.522;27.456;2023-05-01T08:51:02;8.93;;;3.67;;
50249;SDS011;36133;42.522;27.456;2023-05-01T08:53:30;8.35;;;2.97;;
50249;SDS011;36133;42.522;27.456;2023-05-01T08:55:57;6.88;;;2.65;;
50249;SDS011;36133;42.522;27.456;2023-05-01T08:58:24;7.97;;;3.17;;
50249;SDS011;36133;42.522;27.456;2023-05-01T09:00:52;4.65;;;2.60;;
50249;SDS011;36133;42.522;27.456;2023-05-01T09:03:31;5.63;;;2.35;;
50249;SDS011;36133;42.522;27.456;2023-05-01T09:05:58;4.05;;;2.40;;
50249;SDS011;36133;42.522;27.456;2023-05-01T09:08:27;6.90;;;2.47;;
50249;SDS011;36133;42.522;27.456;2023-05-01T09:10:58;6.43;;;2.30;;
50249;SDS011;36133;42.522;27.456;2023-05-01T09:13:25;7.03;;;2.60;;
50249;SDS011;36133;42.522;27.456;2023-05-01T09:16:06;5.40;;;2.05;;
50249;SDS011;36133;42.522;27.456;2023-05-01T09:18:33;5.32;;;2.35;;
50249;SDS011;36133;42.522;27.456;2023-05-01T09:20:59;4.65;;;2.70;;
50249;SDS011;36133;42.522;27.456;2023-05-01T09:23:25;7.95;;;2.80;;
50249;SDS011;36133;42.522;27.456;2023-05-01T09:25:52;6.25;;;3.10;;
50249;SDS011;36133;42.522;27.456;2023-05-01T09:28:37;7.05;;;4.47;;
50249;SDS011;36133;42.522;27.456;2023-05-01T09:31:19;4.45;;;2.28;;
50249;SDS011;36133;42.522;27.456;2023-05-01T09:34:00;6.57;;;2.20;;
50249;SDS011;36133;42.522;27.456;2023-05-01T09:36:31;5.07;;;2.03;;
50249;SDS011;36133;42.522;27.456;2023-05-01T09:39:03;6.38;;;2.00;;
50249;SDS011;36133;42.522;27.456;2023-05-01T09:41:29;6.28;;;2.10;;
50249;SDS011;36133;42.522;27.456;2023-05-01T09:43:58;4.10;;;2.05;;
50249;SDS011;36133;42.522;27.456;2023-05-01T09:46:24;4.00;;;2.10;;
50249;SDS011;36133;42.522;27.456;2023-05-01T09:48:57;4.97;;;2.10;;
50249;SDS011;36133;42.522;27.456;2023-05-01T09:51:28;6.78;;;2.00;;
50249;SDS011;36133;42.522;27.456;2023-05-01T09:53:56;5.18;;;1.85;;
50249;SDS011;36133;42.522;27.456;2023-05-01T09:56:24;6.93;;;1.88;;
50249;SDS011;36133;42.522;27.456;2023-05-01T09:58:57;5.82;;;2.20;;
50249;SDS011;36133;42.522;27.456;2023-05-01T10:01:38;4.90;;;2.10;;
50249;SDS011;36133;42.522;27.456;2023-05-01T10:04:09;7.88;;;1.90;;
50249;SDS011;36133;42.522;27.456;2023-05-01T10:06:35;4.57;;;1.90;;
50249;SDS011;36133;42.522;27.456;2023-05-01T10:09:01;3.72;;;2.00;;
50249;SDS011;36133;42.522;27.456;2023-05-01T10:11:28;3.92;;;1.80;;
50249;SDS011;36133;42.522;27.456;2023-05-01T10:14:09;6.00;;;2.00;;
50249;SDS011;36133;42.522;27.456;2023-05-01T10:16:36;4.90;;;2.10;;
50249;SDS011;36133;42.522;27.456;2023-05-01T10:19:07;5.90;;;1.98;;
50249;SDS011;36133;42.522;27.456;2023-05-01T10:21:39;3.55;;;2.20;;
50249;SDS011;36133;42.522;27.456;2023-05-01T10:24:04;9.07;;;2.20;;
50249;SDS011;36133;42.522;27.456;2023-05-01T10:26:32;3.60;;;2.20;;
50249;SDS011;36133;42.522;27.456;2023-05-01T10:29:08;5.35;;;2.20;;
50249;SDS011;36133;42.522;27.456;2023-05-01T10:31:34;4.60;;;1.75;;
50249;SDS011;36133;42.522;27.456;2023-05-01T10:34:00;6.63;;;2.53;;
50249;SDS011;36133;42.522;27.456;2023-05-01T10:36:40;3.20;;;1.48;;
50249;SDS011;36133;42.522;27.456;2023-05-01T10:39:33;4.97;;;1.77;;
50249;SDS011;36133;42.522;27.456;2023-05-01T10:42:24;3.65;;;1.98;;
50249;SDS011;36133;42.522;27.456;2023-05-01T10:44:50;3.75;;;2.08;;
50249;SDS011;36133;42.522;27.456;2023-05-01T10:55:43;4.85;;;1.77;;
50249;SDS011;36133;42.522;27.456;2023-05-01T10:58:13;4.20;;;1.80;;
50249;SDS011;36133;42.522;27.456;2023-05-01T11:03:57;3.70;;;1.73;;
50249;SDS011;36133;42.522;27.456;2023-05-01T11:06:24;4.75;;;1.73;;
50249;SDS011;36133;42.522;27.456;2023-05-01T11:08:50;3.65;;;1.73;;
50249;SDS011;36133;42.522;27.456;2023-05-01T11:21:47;4.90;;;1.90;;
50249;SDS011;36133;42.522;27.456;2023-05-01T11:24:15;4.32;;;1.83;;
50249;SDS011;36133;42.522;27.456;2023-05-01T11:26:44;4.30;;;2.10;;
50249;SDS011;36133;42.522;27.456;2023-05-01T11:29:10;7.10;;;1.90;;
50249;SDS011;36133;42.522;27.456;2023-05-01T11:31:41;4.35;;;1.98;;
50249;SDS011;36133;42.522;27.456;2023-05-01T11:34:14;5.07;;;1.77;;
50249;SDS011;36133;42.522;27.456;2023-05-01T11:36:49;7.32;;;2.03;;
50249;SDS011;36133;42.522;27.456;2023-05-01T11:39:16;3.88;;;1.60;;
50249;SDS011;36133;42.522;27.456;2023-05-01T11:41:45;3.42;;;2.40;;
50249;SDS011;36133;42.522;27.456;2023-05-01T11:44:20;5.78;;;1.80;;
50249;SDS011;36133;42.522;27.456;2023-05-01T11:46:47;8.88;;;1.98;;
50249;SDS011;36133;42.522;27.456;2023-05-01T11:49:27;5.65;;;2.17;;
50249;SDS011;36133;42.522;27.456;2023-05-01T11:51:56;3.17;;;1.80;;
50249;SDS011;36133;42.522;27.456;2023-05-01T11:54:22;5.90;;;1.58;;
50249;SDS011;36133;42.522;27.456;2023-05-01T11:56:56;25.05;;;2.72;;
50249;SDS011;36133;42.522;27.456;2023-05-01T11:59:25;7.35;;;1.67;;
50249;SDS011;36133;42.522;27.456;2023-05-01T12:01:57;5.18;;;1.70;;
50249;SDS011;36133;42.522;27.456;2023-05-01T12:04:24;5.65;;;1.92;;
50249;SDS011;36133;42.522;27.456;2023-05-01T12:06:52;6.32;;;2.25;;
50249;SDS011;36133;42.522;27.456;2023-05-01T12:09:18;6.18;;;2.85;;
50249;SDS011;36133;42.522;27.456;2023-05-01T12:11:46;6.63;;;1.83;;
50249;SDS011;36133;42.522;27.456;2023-05-01T12:14:15;4.40;;;2.13;;
50249;SDS011;36133;42.522;27.456;2023-05-01T12:16:41;5.68;;;2.00;;
50249;SDS011;36133;42.522;27.456;2023-05-01T12:19:08;4.15;;;1.95;;
50249;SDS011;36133;42.522;27.456;2023-05-01T12:21:36;5.57;;;2.38;;
50249;SDS011;36133;42.522;27.456;2023-05-01T12:27:24;3.72;;;1.80;;
50249;SDS011;36133;42.522;27.456;2023-05-01T12:29:50;9.15;;;2.30;;
50249;SDS011;36133;42.522;27.456;2023-05-01T12:32:27;9.00;;;1.92;;
50249;SDS011;36133;42.522;27.456;2023-05-01T12:34:54;6.95;;;1.70;;
50249;SDS011;36133;42.522;27.456;2023-05-01T12:37:28;4.00;;;1.90;;
50249;SDS011;36133;42.522;27.456;2023-05-01T12:39:55;3.80;;;1.67;;
50249;SDS011;36133;42.522;27.456;2023-05-01T12:42:26;5.18;;;1.70;;
50249;SDS011;36133;42.522;27.456;2023-05-01T12:44:57;3.25;;;1.60;;
50249;SDS011;36133;42.522;27.456;2023-05-01T12:47:25;8.55;;;2.33;;
50249;SDS011;36133;42.522;27.456;2023-05-01T12:49:59;5.50;;;2.13;;
50249;SDS011;36133;42.522;27.456;2023-05-01T12:52:26;6.35;;;1.92;;
50249;SDS011;36133;42.522;27.456;2023-05-01T12:55:00;3.63;;;2.17;;
50249;SDS011;36133;42.522;27.456;2023-05-01T12:57:29;5.35;;;1.90;;
50249;SDS011;36133;42.522;27.456;2023-05-01T13:00:02;6.43;;;1.85;;
50249;SDS011;36133;42.522;27.456;2023-05-01T13:02:32;3.33;;;1.55;;
50249;SDS011;36133;42.522;27.456;2023-05-01T13:05:04;8.48;;;2.25;;
50249;SDS011;36133;42.522;27.456;2023-05-01T13:07:31;4.38;;;2.00;;
50249;SDS011;36133;42.522;27.456;2023-05-01T13:09:58;3.67;;;1.90;;
50249;SDS011;36133;42.522;27.456;2023-05-01T13:12:24;4.45;;;1.60;;
50249;SDS011;36133;42.522;27.456;2023-05-01T13:14:51;6.45;;;1.92;;
50249;SDS011;36133;42.522;27.456;2023-05-01T13:17:35;4.43;;;1.90;;
50249;SDS011;36133;42.522;27.456;2023-05-01T13:20:05;4.95;;;1.70;;
50249;SDS011;36133;42.522;27.456;2023-05-01T13:22:52;3.88;;;1.73;;
50249;SDS011;36133;42.522;27.456;2023-05-01T13:25:21;2.90;;;1.63;;
50249;SDS011;36133;42.522;27.456;2023-05-01T13:27:50;3.40;;;1.80;;
50249;SDS011;36133;42.522;27.456;2023-05-01T13:30:18;5.00;;;2.35;;
50249;SDS011;36133;42.522;27.456;2023-05-01T13:32:48;4.40;;;1.85;;
50249;SDS011;36133;42.522;27.456;2023-05-01T13:35:20;3.85;;;1.52;;
50249;SDS011;36133;42.522;27.456;2023-05-01T13:37:48;4.53;;;1.73;;
50249;SDS011;36133;42.522;27.456;2023-05-01T13:40:13;4.00;;;1.83;;
50249;SDS011;36133;42.522;27.456;2023-05-01T13:42:39;6.50;;;1.60;;
50249;SDS011;36133;42.522;27.456;2023-05-01T13:45:09;3.80;;;1.83;;
50249;SDS011;36133;42.522;27.456;2023-05-01T13:47:37;5.72;;;2.10;;
50249;SDS011;36133;42.522;27.456;2023-05-01T13:50:07;4.90;;;1.80;;
50249;SDS011;36133;42.522;27.456;2023-05-01T13:52:36;7.80;;;1.90;;
50249;SDS011;36133;42.522;27.456;2023-05-01T13:55:07;4.10;;;1.77;;
50249;SDS011;36133;42.522;27.456;2023-05-01T13:57:34;3.05;;;1.70;;
50249;SDS011;36133;42.522;27.456;2023-05-01T14:00:06;3.17;;;1.63;;
50249;SDS011;36133;42.522;27.456;2023-05-01T14:02:33;2.97;;;2.00;;
50249;SDS011;36133;42.522;27.456;2023-05-01T14:05:03;5.25;;;2.42;;
50249;SDS011;36133;42.522;27.456;2023-05-01T14:07:33;3.92;;;2.05;;
50249;SDS011;36133;42.522;27.456;2023-05-01T14:10:20;3.88;;;1.70;;
50249;SDS011;36133;42.522;27.456;2023-05-01T14:12:48;3.63;;;1.95;;
50249;SDS011;36133;42.522;27.456;2023-05-01T14:15:14;4.07;;;2.15;;
50249;SDS011;36133;42.522;27.456;2023-05-01T14:17:41;5.20;;;2.08;;
50249;SDS011;36133;42.522;27.456;2023-05-01T14:20:07;4.97;;;2.13;;
50249;SDS011;36133;42.522;27.456;2023-05-01T14:22:40;4.75;;;1.70;;
50249;SDS011;36133;42.522;27.456;2023-05-01T14:25:20;4.07;;;1.80;;
50249;SDS011;36133;42.522;27.456;2023-05-01T14:27:51;7.22;;;2.08;;
50249;SDS011;36133;42.522;27.456;2023-05-01T14:30:39;3.78;;;1.90;;
50249;SDS011;36133;42.522;27.456;2023-05-01T14:33:04;6.07;;;1.70;;
50249;SDS011;36133;42.522;27.456;2023-05-01T14:35:32;6.28;;;1.92;;
50249;SDS011;36133;42.522;27.456;2023-05-01T14:38:13;3.38;;;2.10;;
50249;SDS011;36133;42.522;27.456;2023-05-01T14:40:40;6.35;;;1.40;;
50249;SDS011;36133;42.522;27.456;2023-05-01T14:43:12;3.00;;;1.70;;
50249;SDS011;36133;42.522;27.456;2023-05-01T14:45:40;3.20;;;1.45;;
50249;SDS011;36133;42.522;27.456;2023-05-01T14:48:10;9.27;;;1.98;;
50249;SDS011;36133;42.522;27.456;2023-05-01T14:50:47;3.45;;;1.90;;
50249;SDS011;36133;42.522;27.456;2023-05-01T14:53:19;3.88;;;1.60;;
50249;SDS011;36133;42.522;27.456;2023-05-01T14:55:45;7.97;;;1.67;;
50249;SDS011;36133;42.522;27.456;2023-05-01T14:58:14;5.18;;;2.10;;
50249;SDS011;36133;42.522;27.456;2023-05-01T15:00:40;4.18;;;1.70;;
50249;SDS011;36133;42.522;27.456;2023-05-01T15:03:05;4.90;;;1.70;;
50249;SDS011;36133;42.522;27.456;2023-05-01T15:05:31;12.55;;;2.17;;
50249;SDS011;36133;42.522;27.456;2023-05-01T15:07:57;2.38;;;1.63;;
50249;SDS011;36133;42.522;27.456;2023-05-01T15:10:26;4.68;;;1.70;;
50249;SDS011;36133;42.522;27.456;2023-05-01T15:12:53;3.47;;;1.95;;
50249;SDS011;36133;42.522;27.456;2023-05-01T15:15:19;3.28;;;1.73;;